sensor_id;sensor_type;location;lat;lon;timestamp;pressure;altitude;pressure_sealevel;temperature;humidity
5522;BME280;2783;48.730;8.006;2023-05-15T00:01:13;99715.66;;;14.81;98.85
5522;BME280;2783;48.730;8.006;2023-05-15T00:03:38;99721.84;;;14.81;99.16
5522;BME280;2783;48.730;8.006;2023-05-15T00:06:04;99723.16;;;14.74;99.09
5522;BME280;2783;48.730;8.006;2023-05-15T00:08:29;99715.59;;;14.65;99.53
5522;BME280;2783;48.730;8.006;2023-05-15T00:10:55;99721.13;;;14.62;99.56
5522;BME280;2783;48.730;8.006;2023-05-15T00:13:20;99712.00;;;14.66;99.48
5522;BME280;2783;48.730;8.006;2023-05-15T00:15:45;99712.28;;;14.77;100.00
5522;BME280;2783;48.730;8.006;2023-05-15T00:18:10;99716.34;;;14.84;98.77
5522;BME280;2783;48.730;8.006;2023-05-15T00:20:36;99718.06;;;14.85;99.23
5522;BME280;2783;48.730;8.006;2023-05-15T00:23:01;99718.06;;;14.85;98.27
5522;BME280;2783;48.730;8.006;2023-05-15T00:25:26;99716.50;;;14.81;97.99
5522;BME280;2783;48.730;8.006;2023-05-15T00:27:52;99722.81;;;14.80;97.82
5522;BME280;2783;48.730;8.006;2023-05-15T00:30:17;99727.47;;;14.77;97.47
5522;BME280;2783;48.730;8.006;2023-05-15T00:32:42;99729.59;;;14.70;97.68
5522;BME280;2783;48.730;8.006;2023-05-15T00:35:07;99741.75;;;14.60;96.71
5522;BME280;2783;48.730;8.006;2023-05-15T00:37:33;99737.13;;;14.46;96.78
5522;BME280;2783;48.730;8.006;2023-05-15T00:39:58;99733.19;;;14.36;97.09
5522;BME280;2783;48.730;8.006;2023-05-15T00:42:23;99727.25;;;14.31;97.36
5522;BME280;2783;48.730;8.006;2023-05-15T00:44:49;99729.69;;;14.36;97.78
5522;BME280;2783;48.730;8.006;2023-05-15T00:47:16;99727.84;;;14.36;98.48
5522;BME280;2783;48.730;8.006;2023-05-15T00:49:42;99730.38;;;14.39;99.27
5522;BME280;2783;48.730;8.006;2023-05-15T00:52:08;99725.75;;;14.43;99.16
5522;BME280;2783;48.730;8.006;2023-05-15T00:54:33;99728.00;;;14.50;99.17
5522;BME280;2783;48.730;8.006;2023-05-15T00:56:59;99728.63;;;14.56;99.73
5522;BME280;2783;48.730;8.006;2023-05-15T00:59:29;99733.28;;;14.52;99.31
5522;BME280;2783;48.730;8.006;2023-05-15T01:01:54;99741.28;;;14.52;99.07
5522;BME280;2783;48.730;8.006;2023-05-15T01:04:19;99735.59;;;14.58;99.07
5522;BME280;2783;48.730;8.006;2023-05-15T01:06:45;99728.38;;;14.60;98.73
5522;BME280;2783;48.730;8.006;2023-05-15T01:09:10;99722.56;;;14.52;98.30
5522;BME280;2783;48.730;8.006;2023-05-15T01:11:36;99721.16;;;14.45;99.61
5522;BME280;2783;48.730;8.006;2023-05-15T01:14:02;99722.44;;;14.38;99.30
5522;BME280;2783;48.730;8.006;2023-05-15T01:16:30;99729.19;;;14.45;99.76
5522;BME280;2783;48.730;8.006;2023-05-15T01:18:55;99721.06;;;14.46;99.78
5522;BME280;2783;48.730;8.006;2023-05-15T01:21:35;99722.81;;;14.47;99.08
5522;BME280;2783;48.730;8.006;2023-05-15T01:29:07;99725.84;;;14.57;98.39
5522;BME280;2783;48.730;8.006;2023-05-15T01:31:36;99716.13;;;14.56;98.40
5522;BME280;2783;48.730;8.006;2023-05-15T01:34:02;99722.31;;;14.57;97.90
5522;BME280;2783;48.730;8.006;2023-05-15T01:39:00;99715.09;;;14.24;98.73
5522;BME280;2783;48.730;8.006;2023-05-15T01:41:37;99719.56;;;14.24;98.49
5522;BME280;2783;48.730;8.006;2023-05-15T01:44:07;99706.78;;;14.30;98.97
5522;BME280;2783;48.730;8.006;2023-05-15T01:46:37;99712.03;;;14.32;98.73
5522;BME280;2783;48.730;8.006;2023-05-15T01:49:02;99717.22;;;14.35;98.38
5522;BME280;2783;48.730;8.006;2023-05-15T01:51:28;99717.72;;;14.26;97.74
5522;BME280;2783;48.730;8.006;2023-05-15T01:53:54;99716.28;;;14.19;97.93
5522;BME280;2783;48.730;8.006;2023-05-15T01:56:22;99724.63;;;14.13;98.97
5522;BME280;2783;48.730;8.006;2023-05-15T01:58:48;99727.91;;;14.01;99.22
5522;BME280;2783;48.730;8.006;2023-05-15T02:01:15;99729.78;;;13.99;99.22
5522;BME280;2783;48.730;8.006;2023-05-15T02:03:41;99729.25;;;13.92;100.00
5522;BME280;2783;48.730;8.006;2023-05-15T02:06:07;99729.78;;;13.99;100.00
5522;BME280;2783;48.730;8.006;2023-05-15T02:08:33;99735.00;;;14.02;100.00
5522;BME280;2783;48.730;8.006;2023-05-15T02:10:59;99743.03;;;14.02;99.10
5522;BME280;2783;48.730;8.006;2023-05-15T02:13:25;99737.19;;;13.94;99.05
5522;BME280;2783;48.730;8.006;2023-05-15T02:15:51;99740.97;;;13.90;99.51
5522;BME280;2783;48.730;8.006;2023-05-15T02:18:16;99734.19;;;13.83;100.00
5522;BME280;2783;48.730;8.006;2023-05-15T02:20:41;99740.66;;;13.96;100.00
5522;BME280;2783;48.730;8.006;2023-05-15T02:23:07;99737.69;;;14.02;100.00
5522;BME280;2783;48.730;8.006;2023-05-15T02:25:45;99739.78;;;14.12;100.00
5522;BME280;2783;48.730;8.006;2023-05-15T02:28:16;99739.41;;;14.20;100.00
5522;BME280;2783;48.730;8.006;2023-05-15T02:30:49;99739.13;;;14.26;99.70
5522;BME280;2783;48.730;8.006;2023-05-15T02:35:48;99741.78;;;14.26;98.88
5522;BME280;2783;48.730;8.006;2023-05-15T02:38:18;99743.97;;;14.18;99.00
5522;BME280;2783;48.730;8.006;2023-05-15T02:40:44;99748.69;;;14.13;98.21
5522;BME280;2783;48.730;8.006;2023-05-15T02:43:10;99747.28;;;14.06;98.75
5522;BME280;2783;48.730;8.006;2023-05-15T02:45:37;99747.28;;;14.06;98.48
5522;BME280;2783;48.730;8.006;2023-05-15T02:48:03;99744.59;;;14.06;98.45
5522;BME280;2783;48.730;8.006;2023-05-15T02:50:29;99751.09;;;14.00;98.81
5522;BME280;2783;48.730;8.006;2023-05-15T02:53:01;99747.03;;;13.93;98.38
5522;BME280;2783;48.730;8.006;2023-05-15T02:55:26;99748.19;;;13.88;98.40
5522;BME280;2783;48.730;8.006;2023-05-15T02:57:52;99754.88;;;13.79;98.81
5522;BME280;2783;48.730;8.006;2023-05-15T03:00:17;99744.50;;;13.73;98.33
5522;BME280;2783;48.730;8.006;2023-05-15T03:02:42;99745.00;;;13.63;98.34
5522;BME280;2783;48.730;8.006;2023-05-15T03:05:08;99735.44;;;13.59;98.78
5522;BME280;2783;48.730;8.006;2023-05-15T03:07:34;99742.50;;;13.60;98.97
5522;BME280;2783;48.730;8.006;2023-05-15T03:09:59;99748.00;;;13.57;98.59
5522;BME280;2783;48.730;8.006;2023-05-15T03:12:24;99741.03;;;13.53;98.80
5522;BME280;2783;48.730;8.006;2023-05-15T03:17:46;99738.84;;;13.44;98.85
5522;BME280;2783;48.730;8.006;2023-05-15T03:20:12;99742.50;;;13.41;98.88
5522;BME280;2783;48.730;8.006;2023-05-15T03:22:38;99743.47;;;13.40;99.91
5522;BME280;2783;48.730;8.006;2023-05-15T03:25:04;99741.59;;;13.42;99.80
5522;BME280;2783;48.730;8.006;2023-05-15T03:27:29;99738.91;;;13.42;99.63
5522;BME280;2783;48.730;8.006;2023-05-15T03:29:54;99737.88;;;13.45;100.00
5522;BME280;2783;48.730;8.006;2023-05-15T03:32:20;99737.81;;;13.46;99.72
5522;BME280;2783;48.730;8.006;2023-05-15T03:34:45;99744.81;;;13.49;100.00
5522;BME280;2783;48.730;8.006;2023-05-15T03:37:10;99743.94;;;13.48;100.00
5522;BME280;2783;48.730;8.006;2023-05-15T03:39:36;99747.50;;;13.49;100.00
5522;BME280;2783;48.730;8.006;2023-05-15T03:42:01;99753.34;;;13.57;100.00
5522;BME280;2783;48.730;8.006;2023-05-15T03:44:26;99747.69;;;13.63;100.00
5522;BME280;2783;48.730;8.006;2023-05-15T03:46:52;99744.09;;;13.64;100.00
5522;BME280;2783;48.730;8.006;2023-05-15T03:49:17;99744.00;;;13.65;100.00
5522;BME280;2783;48.730;8.006;2023-05-15T03:51:42;99750.00;;;13.70;100.00
5522;BME280;2783;48.730;8.006;2023-05-15T03:54:07;99747.25;;;13.72;100.00
5522;BME280;2783;48.730;8.006;2023-05-15T03:56:33;99737.34;;;13.74;100.00
5522;BME280;2783;48.730;8.006;2023-05-15T03:58:58;99743.31;;;13.79;100.00
5522;BME280;2783;48.730;8.006;2023-05-15T04:01:24;99739.69;;;13.80;99.86
5522;BME280;2783;48.730;8.006;2023-05-15T04:03:49;99741.41;;;13.81;99.54
5522;BME280;2783;48.730;8.006;2023-05-15T04:06:15;99739.53;;;13.83;99.54
5522;BME280;2783;48.730;8.006;2023-05-15T04:08:40;99739.69;;;13.80;99.51
5522;BME280;2783;48.730;8.006;2023-05-15T04:11:05;99742.13;;;13.84;99.76
5522;BME280;2783;48.730;8.006;2023-05-15T04:13:31;99734.19;;;13.83;99.67
5522;BME280;2783;48.730;8.006;2023-05-15T04:15:56;99739.31;;;13.87;100.00
5522;BME280;2783;48.730;8.006;2023-05-15T04:18:22;99735.63;;;13.90;99.88
5522;BME280;2783;48.730;8.006;2023-05-15T04:20:47;99738.06;;;13.94;99.81
5522;BME280;2783;48.730;8.006;2023-05-15T04:23:12;99738.78;;;13.98;99.37
5522;BME280;2783;48.730;8.006;2023-05-15T04:25:38;99739.72;;;13.97;99.05
5522;BME280;2783;48.730;8.006;2023-05-15T04:28:03;99737.72;;;14.00;99.31
5522;BME280;2783;48.730;8.006;2023-05-15T04:30:29;99737.53;;;14.05;98.62
5522;BME280;2783;48.730;8.006;2023-05-15T04:32:54;99738.25;;;14.08;98.39
5522;BME280;2783;48.730;8.006;2023-05-15T04:35:20;99741.59;;;14.12;99.26
5522;BME280;2783;48.730;8.006;2023-05-15T04:37:45;99735.41;;;14.11;99.09
5522;BME280;2783;48.730;8.006;2023-05-15T04:40:10;99742.31;;;14.15;98.70
5522;BME280;2783;48.730;8.006;2023-05-15T04:42:38;99739.56;;;14.17;98.99
5522;BME280;2783;48.730;8.006;2023-05-15T04:45:04;99733.09;;;14.21;98.81
5522;BME280;2783;48.730;8.006;2023-05-15T04:47:29;99735.50;;;14.27;98.32
5522;BME280;2783;48.730;8.006;2023-05-15T04:49:54;99743.22;;;14.33;98.96
5522;BME280;2783;48.730;8.006;2023-05-15T04:52:20;99745.91;;;14.33;98.01
5522;BME280;2783;48.730;8.006;2023-05-15T04:54:45;99749.75;;;14.27;98.34
5522;BME280;2783;48.730;8.006;2023-05-15T04:57:12;99754.13;;;14.28;98.11
5522;BME280;2783;48.730;8.006;2023-05-15T04:59:37;99749.19;;;14.38;98.41
5522;BME280;2783;48.730;8.006;2023-05-15T05:02:02;99748.06;;;14.42;98.12
5522;BME280;2783;48.730;8.006;2023-05-15T05:04:28;99741.63;;;14.46;98.03
5522;BME280;2783;48.730;8.006;2023-05-15T05:06:53;99748.63;;;14.48;97.31
5522;BME280;2783;48.730;8.006;2023-05-15T05:09:18;99740.13;;;14.58;97.56
5522;BME280;2783;48.730;8.006;2023-05-15T05:11:44;99737.81;;;14.67;97.49
5522;BME280;2783;48.730;8.006;2023-05-15T05:14:10;99732.81;;;14.77;96.84
5522;BME280;2783;48.730;8.006;2023-05-15T05:16:35;99750.03;;;14.88;96.61
5522;BME280;2783;48.730;8.006;2023-05-15T05:19:01;99744.19;;;14.97;96.46
5522;BME280;2783;48.730;8.006;2023-05-15T05:21:26;99748.16;;;14.90;95.42
5522;BME280;2783;48.730;8.006;2023-05-15T05:23:51;99751.59;;;14.92;95.47
5522;BME280;2783;48.730;8.006;2023-05-15T05:26:16;99743.66;;;14.91;95.21
5522;BME280;2783;48.730;8.006;2023-05-15T05:28:42;99749.19;;;15.03;94.96
5522;BME280;2783;48.730;8.006;2023-05-15T05:31:07;99757.31;;;15.17;95.44
5522;BME280;2783;48.730;8.006;2023-05-15T05:33:32;99760.31;;;15.28;94.12
5522;BME280;2783;48.730;8.006;2023-05-15T05:35:58;99761.53;;;15.38;94.65
5522;BME280;2783;48.730;8.006;2023-05-15T05:38:23;99755.31;;;15.53;93.63
5522;BME280;2783;48.730;8.006;2023-05-15T05:40:50;99758.59;;;15.58;93.74
5522;BME280;2783;48.730;8.006;2023-05-15T05:43:15;99752.19;;;15.61;92.07
5522;BME280;2783;48.730;8.006;2023-05-15T05:45:41;99759.97;;;15.65;91.69
5522;BME280;2783;48.730;8.006;2023-05-15T05:48:06;99757.00;;;15.86;91.54
5522;BME280;2783;48.730;8.006;2023-05-15T05:50:31;99757.06;;;16.00;91.13
5522;BME280;2783;48.730;8.006;2023-05-15T05:52:57;99765.69;;;16.05;89.76
5522;BME280;2783;48.730;8.006;2023-05-15T05:55:22;99769.22;;;16.21;89.36
5522;BME280;2783;48.730;8.006;2023-05-15T05:57:47;99760.22;;;16.22;88.58
5522;BME280;2783;48.730;8.006;2023-05-15T06:00:13;99755.34;;;16.28;88.83
5522;BME280;2783;48.730;8.006;2023-05-15T06:02:38;99757.22;;;16.42;88.77
5522;BME280;2783;48.730;8.006;2023-05-15T06:05:04;99754.56;;;16.56;88.50
5522;BME280;2783;48.730;8.006;2023-05-15T06:07:30;99761.00;;;16.67;87.68
5522;BME280;2783;48.730;8.006;2023-05-15T06:09:55;99762.38;;;16.60;86.20
5522;BME280;2783;48.730;8.006;2023-05-15T06:12:21;99760.38;;;16.78;86.96
5522;BME280;2783;48.730;8.006;2023-05-15T06:14:46;99764.22;;;16.88;87.01
5522;BME280;2783;48.730;8.006;2023-05-15T06:17:11;99772.16;;;17.03;86.35
5522;BME280;2783;48.730;8.006;2023-05-15T06:19:37;99759.97;;;17.12;85.48
5522;BME280;2783;48.730;8.006;2023-05-15T06:22:02;99760.72;;;17.28;85.16
5522;BME280;2783;48.730;8.006;2023-05-15T06:24:27;99764.94;;;17.32;84.94
5522;BME280;2783;48.730;8.006;2023-05-15T06:26:53;99765.06;;;17.31;83.58
5522;BME280;2783;48.730;8.006;2023-05-15T06:29:18;99769.47;;;17.46;82.13
5522;BME280;2783;48.730;8.006;2023-05-15T06:31:43;99767.06;;;17.41;81.99
5522;BME280;2783;48.730;8.006;2023-05-15T06:34:08;99768.78;;;17.56;82.60
5522;BME280;2783;48.730;8.006;2023-05-15T06:36:34;99762.38;;;17.85;81.65
5522;BME280;2783;48.730;8.006;2023-05-15T06:38:59;99768.28;;;18.17;81.09
5522;BME280;2783;48.730;8.006;2023-05-15T06:41:24;99768.47;;;18.41;78.29
5522;BME280;2783;48.730;8.006;2023-05-15T06:43:50;99770.56;;;18.50;77.05
5522;BME280;2783;48.730;8.006;2023-05-15T06:46:15;99770.13;;;18.43;74.99
5522;BME280;2783;48.730;8.006;2023-05-15T06:48:43;99769.25;;;18.43;75.29
5522;BME280;2783;48.730;8.006;2023-05-15T06:51:08;99767.88;;;18.35;75.88
5522;BME280;2783;48.730;8.006;2023-05-15T06:53:33;99769.34;;;18.54;75.76
5522;BME280;2783;48.730;8.006;2023-05-15T06:55:58;99767.75;;;18.64;76.09
5522;BME280;2783;48.730;8.006;2023-05-15T06:58:24;99771.84;;;18.57;74.22
5522;BME280;2783;48.730;8.006;2023-05-15T07:00:49;99770.13;;;18.56;75.05
5522;BME280;2783;48.730;8.006;2023-05-15T07:03:15;99772.81;;;18.56;75.24
5522;BME280;2783;48.730;8.006;2023-05-15T07:05:40;99764.66;;;18.70;74.63
5522;BME280;2783;48.730;8.006;2023-05-15T07:08:06;99770.38;;;18.78;74.39
5522;BME280;2783;48.730;8.006;2023-05-15T07:10:31;99774.47;;;18.96;73.57
5522;BME280;2783;48.730;8.006;2023-05-15T07:12:57;99775.22;;;18.85;72.43
5522;BME280;2783;48.730;8.006;2023-05-15T07:15:22;99770.56;;;18.62;73.09
5522;BME280;2783;48.730;8.006;2023-05-15T07:17:47;99771.22;;;18.66;73.36
5522;BME280;2783;48.730;8.006;2023-05-15T07:20:12;99774.25;;;18.99;74.33
5522;BME280;2783;48.730;8.006;2023-05-15T07:22:38;99767.31;;;19.20;72.72
5522;BME280;2783;48.730;8.006;2023-05-15T07:25:04;99769.56;;;19.26;71.82
5522;BME280;2783;48.730;8.006;2023-05-15T07:27:29;99762.97;;;19.55;71.40
5522;BME280;2783;48.730;8.006;2023-05-15T07:29:54;99765.69;;;19.79;70.30
5522;BME280;2783;48.730;8.006;2023-05-15T07:32:20;99760.88;;;19.71;69.46
5522;BME280;2783;48.730;8.006;2023-05-15T07:34:45;99766.63;;;19.90;69.25
5522;BME280;2783;48.730;8.006;2023-05-15T07:37:10;99768.91;;;20.07;68.88
5522;BME280;2783;48.730;8.006;2023-05-15T07:39:35;99765.97;;;20.10;68.33
5522;BME280;2783;48.730;8.006;2023-05-15T07:42:01;99765.03;;;20.11;69.83
5522;BME280;2783;48.730;8.006;2023-05-15T07:44:26;99767.03;;;20.20;68.12
5522;BME280;2783;48.730;8.006;2023-05-15T07:46:53;99774.78;;;20.59;67.30
5522;BME280;2783;48.730;8.006;2023-05-15T07:49:19;99770.88;;;20.98;66.03
5522;BME280;2783;48.730;8.006;2023-05-15T07:51:44;99766.47;;;21.08;64.38
5522;BME280;2783;48.730;8.006;2023-05-15T07:54:09;99759.66;;;20.91;63.17
5522;BME280;2783;48.730;8.006;2023-05-15T07:56:34;99764.25;;;20.67;62.74
5522;BME280;2783;48.730;8.006;2023-05-15T07:59:00;99761.91;;;21.09;64.02
5522;BME280;2783;48.730;8.006;2023-05-15T08:01:25;99764.38;;;21.45;63.05
5522;BME280;2783;48.730;8.006;2023-05-15T08:03:50;99752.72;;;21.98;60.55
5522;BME280;2783;48.730;8.006;2023-05-15T08:06:16;99752.25;;;22.77;59.23
5522;BME280;2783;48.730;8.006;2023-05-15T08:08:41;99753.16;;;23.07;56.46
5522;BME280;2783;48.730;8.006;2023-05-15T08:11:06;99756.38;;;23.42;55.42
5522;BME280;2783;48.730;8.006;2023-05-15T08:13:31;99757.00;;;23.65;54.45
5522;BME280;2783;48.730;8.006;2023-05-15T08:15:57;99758.47;;;23.79;55.07
5522;BME280;2783;48.730;8.006;2023-05-15T08:18:22;99749.28;;;24.48;52.63
5522;BME280;2783;48.730;8.006;2023-05-15T08:20:48;99756.56;;;24.47;50.68
5522;BME280;2783;48.730;8.006;2023-05-15T08:23:13;99759.16;;;24.39;50.40
5522;BME280;2783;48.730;8.006;2023-05-15T08:25:38;99756.84;;;24.73;49.52
5522;BME280;2783;48.730;8.006;2023-05-15T08:28:03;99749.09;;;24.97;49.90
5522;BME280;2783;48.730;8.006;2023-05-15T08:30:29;99751.13;;;25.22;47.84
5522;BME280;2783;48.730;8.006;2023-05-15T08:32:55;99752.41;;;25.28;46.69
5522;BME280;2783;48.730;8.006;2023-05-15T08:35:20;99752.25;;;25.29;47.74
5522;BME280;2783;48.730;8.006;2023-05-15T08:37:45;99752.97;;;25.41;47.06
5522;BME280;2783;48.730;8.006;2023-05-15T08:40:10;99754.53;;;25.43;46.30
5522;BME280;2783;48.730;8.006;2023-05-15T08:45:05;99749.34;;;26.22;46.66
5522;BME280;2783;48.730;8.006;2023-05-15T08:47:31;99742.34;;;26.72;44.38
5522;BME280;2783;48.730;8.006;2023-05-15T08:50:04;99747.03;;;27.05;43.14
5522;BME280;2783;48.730;8.006;2023-05-15T08:52:33;99746.47;;;26.76;43.87
5522;BME280;2783;48.730;8.006;2023-05-15T08:54:59;99739.09;;;26.68;43.78
5522;BME280;2783;48.730;8.006;2023-05-15T08:57:25;99733.31;;;26.97;43.87
5522;BME280;2783;48.730;8.006;2023-05-15T08:59:52;99736.34;;;26.94;44.65
5522;BME280;2783;48.730;8.006;2023-05-15T09:02:18;99731.88;;;27.10;44.18
5522;BME280;2783;48.730;8.006;2023-05-15T09:04:43;99729.47;;;27.07;42.74
5522;BME280;2783;48.730;8.006;2023-05-15T09:07:09;99729.75;;;26.96;42.96
5522;BME280;2783;48.730;8.006;2023-05-15T09:09:35;99732.81;;;27.27;43.05
5522;BME280;2783;48.730;8.006;2023-05-15T09:12:01;99723.88;;;27.17;42.67
5522;BME280;2783;48.730;8.006;2023-05-15T09:14:27;99729.72;;;27.22;44.69
5522;BME280;2783;48.730;8.006;2023-05-15T09:16:53;99730.25;;;27.51;42.59
5522;BME280;2783;48.730;8.006;2023-05-15T09:19:18;99728.47;;;27.76;42.32
5522;BME280;2783;48.730;8.006;2023-05-15T09:21:45;99723.59;;;27.54;42.14
5522;BME280;2783;48.730;8.006;2023-05-15T09:24:18;99729.47;;;27.75;42.20
5522;BME280;2783;48.730;8.006;2023-05-15T09:26:44;99720.91;;;27.70;41.01
5522;BME280;2783;48.730;8.006;2023-05-15T09:29:10;99717.47;;;27.68;41.96
5522;BME280;2783;48.730;8.006;2023-05-15T09:31:35;99707.72;;;27.57;40.39
5522;BME280;2783;48.730;8.006;2023-05-15T09:34:01;99709.25;;;27.26;39.80
5522;BME280;2783;48.730;8.006;2023-05-15T09:36:28;99713.88;;;27.51;41.43
5522;BME280;2783;48.730;8.006;2023-05-15T09:38:57;99710.50;;;27.73;41.36
5522;BME280;2783;48.730;8.006;2023-05-15T09:41:24;99711.16;;;27.59;40.98
5522;BME280;2783;48.730;8.006;2023-05-15T09:43:49;99705.47;;;27.94;39.95
5522;BME280;2783;48.730;8.006;2023-05-15T09:46:15;99704.81;;;27.92;40.41
5522;BME280;2783;48.730;8.006;2023-05-15T09:48:41;99701.38;;;27.98;38.92
5522;BME280;2783;48.730;8.006;2023-05-15T09:51:13;99689.94;;;28.19;41.02
5522;BME280;2783;48.730;8.006;2023-05-15T09:53:39;99684.38;;;28.53;39.47
5522;BME280;2783;48.730;8.006;2023-05-15T09:56:04;99685.69;;;28.08;39.02
5522;BME280;2783;48.730;8.006;2023-05-15T09:58:30;99676.78;;;27.98;39.22
5522;BME280;2783;48.730;8.006;2023-05-15T10:00:56;99678.38;;;27.67;38.90
5522;BME280;2783;48.730;8.006;2023-05-15T10:03:23;99680.41;;;27.65;38.39
5522;BME280;2783;48.730;8.006;2023-05-15T10:05:52;99675.66;;;27.67;39.60
5522;BME280;2783;48.730;8.006;2023-05-15T10:08:26;99672.94;;;27.75;39.71
5522;BME280;2783;48.730;8.006;2023-05-15T10:10:52;99679.03;;;28.27;38.24
5522;BME280;2783;48.730;8.006;2023-05-15T10:13:18;99676.47;;;28.41;37.00
5522;BME280;2783;48.730;8.006;2023-05-15T10:15:44;99677.81;;;28.37;37.22
5522;BME280;2783;48.730;8.006;2023-05-15T10:18:13;99660.06;;;28.66;37.31
5522;BME280;2783;48.730;8.006;2023-05-15T10:20:41;99672.34;;;28.45;37.30
5522;BME280;2783;48.730;8.006;2023-05-15T10:23:07;99673.19;;;27.98;36.48
5522;BME280;2783;48.730;8.006;2023-05-15T10:28:09;99665.69;;;28.32;37.05
5522;BME280;2783;48.730;8.006;2023-05-15T10:30:35;99659.69;;;28.77;36.07
5522;BME280;2783;48.730;8.006;2023-05-15T10:33:01;99652.72;;;28.58;38.28
5522;BME280;2783;48.730;8.006;2023-05-15T10:35:28;99650.41;;;29.10;37.02
5522;BME280;2783;48.730;8.006;2023-05-15T10:37:54;99646.31;;;29.44;35.03
5522;BME280;2783;48.730;8.006;2023-05-15T10:40:20;99646.56;;;29.65;36.36
5522;BME280;2783;48.730;8.006;2023-05-15T10:42:45;99641.78;;;29.90;34.96
5522;BME280;2783;48.730;8.006;2023-05-15T10:45:11;99652.19;;;29.72;34.00
5522;BME280;2783;48.730;8.006;2023-05-15T10:47:37;99627.94;;;28.52;35.91
5522;BME280;2783;48.730;8.006;2023-05-15T10:50:03;99632.53;;;28.35;37.34
5522;BME280;2783;48.730;8.006;2023-05-15T10:52:30;99620.31;;;28.86;35.58
5522;BME280;2783;48.730;8.006;2023-05-15T10:54:55;99618.53;;;29.55;36.62
5522;BME280;2783;48.730;8.006;2023-05-15T10:57:21;99619.88;;;30.13;35.50
5522;BME280;2783;48.730;8.006;2023-05-15T10:59:46;99617.91;;;30.21;32.88
5522;BME280;2783;48.730;8.006;2023-05-15T11:04:43;99619.09;;;29.43;35.67
5522;BME280;2783;48.730;8.006;2023-05-15T11:07:15;99626.38;;;28.17;35.60
5522;BME280;2783;48.730;8.006;2023-05-15T11:09:41;99618.09;;;27.85;37.52
5522;BME280;2783;48.730;8.006;2023-05-15T11:12:07;99623.31;;;26.79;36.96
5522;BME280;2783;48.730;8.006;2023-05-15T11:14:34;99625.44;;;26.42;39.72
5522;BME280;2783;48.730;8.006;2023-05-15T11:17:00;99623.16;;;26.12;40.06
5522;BME280;2783;48.730;8.006;2023-05-15T11:27:27;99660.66;;;24.55;46.44
5522;BME280;2783;48.730;8.006;2023-05-15T11:32:40;99685.72;;;22.32;59.72
5522;BME280;2783;48.730;8.006;2023-05-15T11:37:58;99701.38;;;20.76;67.99
5522;BME280;2783;48.730;8.006;2023-05-15T11:40:26;99709.91;;;20.37;69.93
5522;BME280;2783;48.730;8.006;2023-05-15T11:42:59;99713.31;;;20.05;72.16
5522;BME280;2783;48.730;8.006;2023-05-15T11:45:24;99717.50;;;19.61;71.69
5522;BME280;2783;48.730;8.006;2023-05-15T11:47:50;99697.50;;;19.28;74.57
5522;BME280;2783;48.730;8.006;2023-05-15T11:50:16;99698.34;;;18.92;76.77
5522;BME280;2783;48.730;8.006;2023-05-15T11:52:42;99677.19;;;18.99;78.39
5522;BME280;2783;48.730;8.006;2023-05-15T11:55:07;99674.97;;;18.93;73.11
5522;BME280;2783;48.730;8.006;2023-05-15T11:57:33;99668.50;;;18.83;75.27
5522;BME280;2783;48.730;8.006;2023-05-15T11:59:58;99662.75;;;19.00;77.47
5522;BME280;2783;48.730;8.006;2023-05-15T12:02:23;99652.63;;;18.91;74.43
5522;BME280;2783;48.730;8.006;2023-05-15T12:04:49;99648.97;;;18.92;74.66
5522;BME280;2783;48.730;8.006;2023-05-15T12:07:16;99636.88;;;18.85;72.29
5522;BME280;2783;48.730;8.006;2023-05-15T12:09:41;99631.06;;;18.78;72.41
5522;BME280;2783;48.730;8.006;2023-05-15T12:12:11;99633.84;;;19.02;75.37
5522;BME280;2783;48.730;8.006;2023-05-15T12:14:37;99631.63;;;19.19;71.31
5522;BME280;2783;48.730;8.006;2023-05-15T12:17:03;99627.91;;;19.45;72.98
5522;BME280;2783;48.730;8.006;2023-05-15T12:19:32;99626.03;;;19.93;75.97
5522;BME280;2783;48.730;8.006;2023-05-15T12:21:58;99618.75;;;19.94;67.16
5522;BME280;2783;48.730;8.006;2023-05-15T12:24:24;99619.25;;;20.22;70.28
5522;BME280;2783;48.730;8.006;2023-05-15T12:26:50;99625.28;;;20.26;65.19
5522;BME280;2783;48.730;8.006;2023-05-15T12:29:15;99628.22;;;19.88;68.04
5522;BME280;2783;48.730;8.006;2023-05-15T12:31:41;99617.91;;;19.93;73.52
5522;BME280;2783;48.730;8.006;2023-05-15T12:34:06;99617.28;;;19.90;68.44
5522;BME280;2783;48.730;8.006;2023-05-15T12:36:33;99620.69;;;19.81;69.67
5522;BME280;2783;48.730;8.006;2023-05-15T12:39:03;99619.25;;;19.64;71.18
5522;BME280;2783;48.730;8.006;2023-05-15T12:41:28;99613.75;;;19.65;71.34
5522;BME280;2783;48.730;8.006;2023-05-15T12:43:54;99620.00;;;19.66;72.32
5522;BME280;2783;48.730;8.006;2023-05-15T12:46:23;99617.78;;;19.36;68.10
5522;BME280;2783;48.730;8.006;2023-05-15T12:48:49;99613.91;;;19.28;71.70
5522;BME280;2783;48.730;8.006;2023-05-15T12:51:15;99620.53;;;19.71;74.52
5522;BME280;2783;48.730;8.006;2023-05-15T12:53:40;99622.84;;;20.10;74.51
5522;BME280;2783;48.730;8.006;2023-05-15T12:56:06;99627.34;;;20.33;73.79
5522;BME280;2783;48.730;8.006;2023-05-15T12:58:32;99631.44;;;20.39;70.63
5522;BME280;2783;48.730;8.006;2023-05-15T13:00:58;99630.34;;;20.52;69.10
5522;BME280;2783;48.730;8.006;2023-05-15T13:03:23;99634.97;;;20.28;64.54
5522;BME280;2783;48.730;8.006;2023-05-15T13:05:48;99635.00;;;20.94;65.68
5522;BME280;2783;48.730;8.006;2023-05-15T13:08:16;99631.44;;;22.22;66.28
5522;BME280;2783;48.730;8.006;2023-05-15T13:10:42;99627.34;;;23.08;59.30
5522;BME280;2783;48.730;8.006;2023-05-15T13:13:07;99629.44;;;23.44;59.38
5522;BME280;2783;48.730;8.006;2023-05-15T13:15:34;99647.09;;;23.88;61.51
5522;BME280;2783;48.730;8.006;2023-05-15T13:18:04;99636.91;;;24.47;61.25
5522;BME280;2783;48.730;8.006;2023-05-15T13:20:34;99641.19;;;24.69;54.73
5522;BME280;2783;48.730;8.006;2023-05-15T13:23:00;99639.88;;;25.10;55.93
5522;BME280;2783;48.730;8.006;2023-05-15T13:25:25;99637.44;;;25.07;53.39
5522;BME280;2783;48.730;8.006;2023-05-15T13:27:51;99644.53;;;24.90;54.06
5522;BME280;2783;48.730;8.006;2023-05-15T13:30:16;99637.09;;;25.19;54.16
5522;BME280;2783;48.730;8.006;2023-05-15T13:32:42;99640.53;;;25.21;51.15
5522;BME280;2783;48.730;8.006;2023-05-15T13:35:07;99638.72;;;25.12;53.16
5522;BME280;2783;48.730;8.006;2023-05-15T13:37:34;99646.22;;;25.01;52.73
5522;BME280;2783;48.730;8.006;2023-05-15T13:39:59;99638.78;;;24.37;52.26
5522;BME280;2783;48.730;8.006;2023-05-15T13:42:24;99640.94;;;23.96;54.29
5522;BME280;2783;48.730;8.006;2023-05-15T13:44:50;99637.88;;;23.41;55.35
5522;BME280;2783;48.730;8.006;2023-05-15T13:47:15;99634.34;;;22.71;59.87
5522;BME280;2783;48.730;8.006;2023-05-15T13:49:40;99632.38;;;22.32;62.05